Time;durP1;ratioP1;P1;durP2;ratioP2;P2;SDS_P1;SDS_P2;PMS_P1;PMS_P2;Temp;Humidity;BMP_temperature;BMP_pressure;BME280_temperature;BME280_humidity;BME280_pressure;Samples;Min_cycle;Max_cycle;Signal;HPM_P1;HPM_P2
2022/11/20 00:02:19;;;;;;;;;;;19.30;54.80;;;;;;5051840;28;20020;-62
2022/11/20 00:04:45;;;;;;;;;;;19.20;54.60;;;;;;5052081;28;19932;-61
2022/11/20 00:07:10;;;;;;;;;;;19.20;54.60;;;;;;5052041;28;19931;-61
2022/11/20 00:09:35;;;;;;;;;;;19.20;54.70;;;;;;5051370;28;20334;-61
2022/11/20 00:12:01;;;;;;;;;;;19.20;54.70;;;;;;5052325;28;19931;-61
2022/11/20 00:14:26;;;;;;;;;;;19.20;54.60;;;;;;5051993;28;19925;-62
2022/11/20 00:16:52;;;;;;;;;;;19.20;54.60;;;;;;5051895;28;19924;-61
2022/11/20 00:19:20;;;;;;;;;;;19.20;54.60;;;;;;5052205;28;19925;-61
2022/11/20 00:21:45;;;;;;;;;;;19.10;54.50;;;;;;5051574;28;19929;-61
2022/11/20 00:24:11;;;;;;;;;;;19.10;54.40;;;;;;5051306;28;19971;-62
2022/11/20 00:26:36;;;;;;;;;;;19.10;54.50;;;;;;5051759;28;20384;-62
2022/11/20 00:29:02;;;;;;;;;;;19.10;54.60;;;;;;5052193;28;19924;-61
2022/11/20 00:31:27;;;;;;;;;;;19.10;54.60;;;;;;5051319;28;19925;-61
2022/11/20 00:33:53;;;;;;;;;;;19.10;54.60;;;;;;5052163;28;19929;-62
2022/11/20 00:36:19;;;;;;;;;;;19.10;54.60;;;;;;5051778;28;19925;-62
2022/11/20 00:38:45;;;;;;;;;;;19.00;54.50;;;;;;5051296;28;19928;-62
2022/11/20 00:41:14;;;;;;;;;;;19.00;54.50;;;;;;5055383;28;19925;-62
2022/11/20 00:43:40;;;;;;;;;;;19.10;54.50;;;;;;5055752;28;19948;-62
2022/11/20 00:46:06;;;;;;;;;;;19.00;54.50;;;;;;5054818;28;20364;-61
2022/11/20 00:48:32;;;;;;;;;;;19.00;54.50;;;;;;5055453;28;19968;-62
2022/11/20 00:50:57;;;;;;;;;;;19.00;54.50;;;;;;5055753;28;19971;-62
2022/11/20 00:53:23;;;;;;;;;;;19.00;54.50;;;;;;5055149;28;19925;-62
2022/11/20 00:55:58;;;;;;;;;;;19.00;54.60;;;;;;5055414;28;20356;-62
2022/11/20 00:58:24;;;;;;;;;;;19.00;54.50;;;;;;5055670;28;19955;-62
2022/11/20 01:00:49;;;;;;;;;;;19.00;54.50;;;;;;5054425;28;20506;-62
2022/11/20 01:03:16;;;;;;;;;;;19.00;54.50;;;;;;5037854;28;19975;-61
2022/11/20 01:05:41;;;;;;;;;;;18.90;54.40;;;;;;5054575;28;19974;-62
2022/11/20 01:08:07;;;;;;;;;;;18.90;54.50;;;;;;5055193;28;19925;-62
2022/11/20 01:10:32;;;;;;;;;;;18.90;54.50;;;;;;5055038;28;19975;-62
2022/11/20 01:15:42;;;;;;;;;;;18.90;54.50;;;;;;5055205;28;19925;-62
2022/11/20 01:18:07;;;;;;;;;;;18.90;54.50;;;;;;5055164;28;19921;-62
2022/11/20 01:20:36;;;;;;;;;;;18.90;54.40;;;;;;5054171;28;19924;-62
2022/11/20 01:23:02;;;;;;;;;;;18.90;54.50;;;;;;5054959;28;19921;-62
2022/11/20 01:25:27;;;;;;;;;;;18.90;54.40;;;;;;5054465;28;19931;-62
2022/11/20 01:27:53;;;;;;;;;;;18.90;54.40;;;;;;5054387;28;19929;-61
2022/11/20 01:30:18;;;;;;;;;;;18.80;54.50;;;;;;5054907;28;19921;-61
2022/11/20 01:32:44;;;;;;;;;;;18.80;54.40;;;;;;5054518;28;22270;-62
2022/11/20 01:35:10;;;;;;;;;;;18.80;54.40;;;;;;5054273;28;19924;-62
2022/11/20 01:37:35;;;;;;;;;;;18.80;54.40;;;;;;5054278;28;20268;-61
2022/11/20 01:40:01;;;;;;;;;;;18.80;54.30;;;;;;5070195;28;20361;-61
2022/11/20 01:45:29;;;;;;;;;;;18.80;54.50;;;;;;5055084;28;19925;-62
2022/11/20 01:48:00;;;;;;;;;;;18.80;54.50;;;;;;5054252;28;19925;-62
2022/11/20 01:50:28;;;;;;;;;;;18.80;54.50;;;;;;5054299;28;19975;-61
2022/11/20 01:53:07;;;;;;;;;;;18.80;54.50;;;;;;5068828;28;19925;-62
2022/11/20 01:55:55;;;;;;;;;;;18.80;54.50;;;;;;5053802;28;19994;-61
2022/11/20 01:58:22;;;;;;;;;;;18.70;54.50;;;;;;5051338;28;19979;-62
2022/11/20 02:00:47;;;;;;;;;;;18.70;54.40;;;;;;5054057;28;20407;-62
2022/11/20 02:03:14;;;;;;;;;;;18.70;54.40;;;;;;5053750;28;19925;-62
2022/11/20 02:05:58;;;;;;;;;;;18.70;54.50;;;;;;5069463;28;19924;-62
2022/11/20 02:08:24;;;;;;;;;;;18.70;54.40;;;;;;5054411;28;19921;-61
2022/11/20 02:10:49;;;;;;;;;;;18.70;54.40;;;;;;5053233;28;20018;-62
2022/11/20 02:15:59;;;;;;;;;;;18.70;54.50;;;;;;5053514;28;19925;-62
2022/11/20 02:18:24;;;;;;;;;;;18.70;54.40;;;;;;5054093;28;19920;-62
2022/11/20 02:20:51;;;;;;;;;;;18.70;54.40;;;;;;5069300;28;20399;-62
2022/11/20 02:23:23;;;;;;;;;;;18.70;54.50;;;;;;5068954;28;19925;-61
2022/11/20 02:25:48;;;;;;;;;;;18.70;54.50;;;;;;5053587;28;20319;-62
2022/11/20 02:28:14;;;;;;;;;;;18.70;54.50;;;;;;5069246;28;19932;-62
2022/11/20 02:30:40;;;;;;;;;;;18.70;54.50;;;;;;5068365;28;20372;-62
2022/11/20 02:33:05;;;;;;;;;;;18.70;54.50;;;;;;5054028;28;19924;-61
2022/11/20 02:35:31;;;;;;;;;;;18.70;54.30;;;;;;5053732;28;19931;-61
2022/11/20 02:37:57;;;;;;;;;;;18.70;54.40;;;;;;5052603;28;19987;-61
2022/11/20 02:40:23;;;;;;;;;;;18.70;54.40;;;;;;5053148;28;20031;-62
2022/11/20 02:42:51;;;;;;;;;;;18.70;54.50;;;;;;5053233;28;20364;-62
2022/11/20 02:45:17;;;;;;;;;;;18.70;54.40;;;;;;5052970;28;19928;-61
2022/11/20 02:47:42;;;;;;;;;;;18.70;54.40;;;;;;5053263;28;20337;-62
2022/11/20 02:50:08;;;;;;;;;;;18.70;54.40;;;;;;5053508;28;20024;-62
2022/11/20 02:52:33;;;;;;;;;;;18.80;54.40;;;;;;5052452;28;19999;-62
2022/11/20 02:54:59;;;;;;;;;;;18.70;54.40;;;;;;5053422;28;20356;-62
2022/11/20 02:57:24;;;;;;;;;;;18.80;54.40;;;;;;5053327;28;19925;-62
2022/11/20 02:59:50;;;;;;;;;;;18.70;54.30;;;;;;5052535;28;20400;-62
2022/11/20 03:02:15;;;;;;;;;;;18.80;54.30;;;;;;5052725;28;19932;-62
2022/11/20 03:04:41;;;;;;;;;;;18.80;54.30;;;;;;5052522;28;19925;-62
2022/11/20 03:07:07;;;;;;;;;;;18.80;54.30;;;;;;5052536;28;19936;-62
2022/11/20 03:09:32;;;;;;;;;;;18.80;54.40;;;;;;5052996;28;19971;-62
2022/11/20 03:11:58;;;;;;;;;;;18.80;54.30;;;;;;5053086;28;19964;-62
2022/11/20 03:14:23;;;;;;;;;;;18.80;54.40;;;;;;5052489;28;19929;-62
2022/11/20 03:16:49;;;;;;;;;;;18.80;54.30;;;;;;5052521;28;19934;-62
2022/11/20 03:19:14;;;;;;;;;;;18.80;54.30;;;;;;5052441;28;19971;-62
2022/11/20 03:21:40;;;;;;;;;;;18.80;54.40;;;;;;5052407;28;19947;-62
2022/11/20 03:24:05;;;;;;;;;;;18.80;54.30;;;;;;5052949;28;19978;-62
2022/11/20 03:26:31;;;;;;;;;;;18.80;54.40;;;;;;5051507;28;19948;-62
2022/11/20 03:28:57;;;;;;;;;;;18.80;54.30;;;;;;5052863;28;19929;-62
2022/11/20 03:31:26;;;;;;;;;;;18.80;55.00;;;;;;5052816;28;19933;-61
2022/11/20 03:33:52;;;;;;;;;;;18.90;54.30;;;;;;5052088;28;20014;-62
2022/11/20 03:36:18;;;;;;;;;;;18.90;54.30;;;;;;5052621;28;19983;-62
2022/11/20 03:38:43;;;;;;;;;;;18.90;54.40;;;;;;5052013;28;19932;-62
2022/11/20 03:41:12;;;;;;;;;;;18.90;54.40;;;;;;5051939;28;20033;-62
2022/11/20 03:43:38;;;;;;;;;;;18.90;54.30;;;;;;5052144;28;19932;-62
2022/11/20 03:46:03;;;;;;;;;;;18.90;54.30;;;;;;5052727;28;19924;-62
2022/11/20 03:48:29;;;;;;;;;;;18.90;54.30;;;;;;5051440;28;19932;-62
2022/11/20 03:51:13;;;;;;;;;;;19.00;54.30;;;;;;5052427;28;20295;-62
2022/11/20 03:53:39;;;;;;;;;;;19.00;54.30;;;;;;5052035;28;19976;-62
2022/11/20 03:56:05;;;;;;;;;;;19.00;54.30;;;;;;5051784;28;20025;-62
2022/11/20 03:58:30;;;;;;;;;;;19.00;54.30;;;;;;5052385;28;19920;-62
2022/11/20 04:00:56;;;;;;;;;;;19.00;54.20;;;;;;5052181;28;20528;-62
2022/11/20 04:03:21;;;;;;;;;;;19.00;54.20;;;;;;5051456;28;19921;-62
2022/11/20 04:05:47;;;;;;;;;;;19.00;54.20;;;;;;5051281;28;20333;-62
2022/11/20 04:08:12;;;;;;;;;;;19.00;54.90;;;;;;5052481;28;19924;-62
2022/11/20 04:10:38;;;;;;;;;;;19.00;54.20;;;;;;5051394;28;19920;-62
2022/11/20 04:13:03;;;;;;;;;;;19.00;54.20;;;;;;5052448;28;19975;-61
2022/11/20 04:15:31;;;;;;;;;;;19.10;54.20;;;;;;5053988;28;19932;-62
2022/11/20 04:17:57;;;;;;;;;;;19.10;54.20;;;;;;5056570;28;19960;-62
2022/11/20 04:20:22;;;;;;;;;;;19.10;54.20;;;;;;5056652;28;20304;-62
2022/11/20 04:22:48;;;;;;;;;;;19.10;54.20;;;;;;5054858;28;19921;-62
2022/11/20 04:25:13;;;;;;;;;;;19.10;54.20;;;;;;5056354;28;19959;-62
2022/11/20 04:27:39;;;;;;;;;;;19.10;54.20;;;;;;5056103;28;19924;-61
2022/11/20 04:30:04;;;;;;;;;;;19.10;54.10;;;;;;5055392;28;19933;-61
2022/11/20 04:32:30;;;;;;;;;;;19.20;54.20;;;;;;5055943;28;19932;-62
2022/11/20 04:34:55;;;;;;;;;;;19.20;54.20;;;;;;5055282;28;19932;-62
2022/11/20 04:37:21;;;;;;;;;;;19.20;54.20;;;;;;5055112;28;20295;-62
2022/11/20 04:39:46;;;;;;;;;;;19.20;54.20;;;;;;5055607;28;19952;-62
2022/11/20 04:42:30;;;;;;;;;;;19.20;54.20;;;;;;5056231;28;19936;-62
2022/11/20 04:44:55;;;;;;;;;;;19.20;54.10;;;;;;5055313;28;19924;-62
2022/11/20 04:47:21;;;;;;;;;;;19.20;54.10;;;;;;5055957;28;19925;-63
2022/11/20 04:49:46;;;;;;;;;;;19.20;54.10;;;;;;5055676;28;19955;-62
2022/11/20 04:52:12;;;;;;;;;;;19.20;54.10;;;;;;5055091;28;20031;-62
2022/11/20 04:54:37;;;;;;;;;;;19.30;54.20;;;;;;5055323;28;19948;-62
2022/11/20 04:57:03;;;;;;;;;;;19.30;54.20;;;;;;5056068;28;19925;-62
2022/11/20 04:59:28;;;;;;;;;;;19.30;54.10;;;;;;5054879;28;19925;-62
2022/11/20 05:01:54;;;;;;;;;;;19.30;54.10;;;;;;5048693;28;20457;-61
2022/11/20 05:04:19;;;;;;;;;;;19.30;54.10;;;;;;5052207;28;19924;-62
2022/11/20 05:06:45;;;;;;;;;;;19.30;54.10;;;;;;5053745;28;20299;-62
2022/11/20 05:09:11;;;;;;;;;;;19.30;54.10;;;;;;5055603;28;19925;-62
2022/11/20 05:11:36;;;;;;;;;;;19.30;54.00;;;;;;5055112;28;19929;-62
2022/11/20 05:14:02;;;;;;;;;;;19.30;54.00;;;;;;5054801;28;20016;-62
2022/11/20 05:16:27;;;;;;;;;;;19.40;54.20;;;;;;5054888;28;19925;-62
2022/11/20 05:18:54;;;;;;;;;;;19.40;54.10;;;;;;5054475;28;19925;-62
2022/11/20 05:21:19;;;;;;;;;;;19.40;54.10;;;;;;5055176;28;19925;-62
2022/11/20 05:23:45;;;;;;;;;;;19.40;54.10;;;;;;5054906;28;20498;-62
2022/11/20 05:26:14;;;;;;;;;;;19.40;54.10;;;;;;5053955;28;19925;-62
2022/11/20 05:28:40;;;;;;;;;;;19.40;54.10;;;;;;5054873;28;20376;-62
2022/11/20 05:31:05;;;;;;;;;;;19.40;54.00;;;;;;5055080;28;19925;-62
2022/11/20 05:33:31;;;;;;;;;;;19.40;54.10;;;;;;5053912;28;19932;-62
2022/11/20 05:36:00;;;;;;;;;;;19.40;54.00;;;;;;5055031;28;19933;-62
2022/11/20 05:38:25;;;;;;;;;;;19.40;54.00;;;;;;5055136;28;20019;-62
2022/11/20 05:40:51;;;;;;;;;;;19.40;53.90;;;;;;5054139;28;20528;-62
2022/11/20 05:43:16;;;;;;;;;;;19.40;54.00;;;;;;5054782;28;19924;-62
2022/11/20 05:45:41;;;;;;;;;;;19.40;53.90;;;;;;5054568;28;19925;-62
2022/11/20 05:48:07;;;;;;;;;;;19.50;53.90;;;;;;5053663;28;19928;-62
2022/11/20 05:50:32;;;;;;;;;;;19.40;53.90;;;;;;5069832;28;20380;-62
2022/11/20 05:52:59;;;;;;;;;;;19.50;53.90;;;;;;5054425;28;19924;-62
2022/11/20 05:55:25;;;;;;;;;;;19.50;53.90;;;;;;5054116;28;19924;-62
2022/11/20 05:57:51;;;;;;;;;;;19.50;54.00;;;;;;5054322;28;20028;-62
2022/11/20 06:00:17;;;;;;;;;;;19.50;54.00;;;;;;5054527;28;19928;-62
2022/11/20 06:02:42;;;;;;;;;;;19.50;53.90;;;;;;5053374;28;19931;-62
2022/11/20 06:05:08;;;;;;;;;;;19.50;53.90;;;;;;5054560;28;19994;-62
2022/11/20 06:07:33;;;;;;;;;;;19.50;53.90;;;;;;5054121;28;20331;-62
2022/11/20 06:09:59;;;;;;;;;;;19.50;53.90;;;;;;5053861;28;19925;-61
2022/11/20 06:12:24;;;;;;;;;;;19.50;53.90;;;;;;5054668;28;19925;-62
2022/11/20 06:14:50;;;;;;;;;;;19.50;53.80;;;;;;5053825;28;19925;-61
2022/11/20 06:17:15;;;;;;;;;;;19.60;53.90;;;;;;5053326;28;19928;-62
2022/11/20 06:19:40;;;;;;;;;;;19.60;53.80;;;;;;5053926;28;19956;-62
2022/11/20 06:22:06;;;;;;;;;;;19.60;53.80;;;;;;5053438;28;19932;-62
2022/11/20 06:24:31;;;;;;;;;;;19.60;53.80;;;;;;5053895;28;20441;-62
2022/11/20 06:26:57;;;;;;;;;;;19.60;53.80;;;;;;5053857;28;19936;-62
2022/11/20 06:29:22;;;;;;;;;;;19.60;53.80;;;;;;5035218;28;19929;-61
2022/11/20 06:31:48;;;;;;;;;;;19.60;53.80;;;;;;5053649;28;19924;-62
2022/11/20 06:34:13;;;;;;;;;;;19.60;53.80;;;;;;5053593;28;20011;-61
2022/11/20 06:36:39;;;;;;;;;;;19.60;53.80;;;;;;5052802;28;19936;-62
2022/11/20 06:39:04;;;;;;;;;;;19.60;53.70;;;;;;5068572;28;19921;-62
2022/11/20 06:41:30;;;;;;;;;;;19.60;53.80;;;;;;5053623;28;20131;-62
2022/11/20 06:43:55;;;;;;;;;;;19.60;53.80;;;;;;5052556;28;20333;-62
2022/11/20 06:46:21;;;;;;;;;;;19.60;53.80;;;;;;5053670;28;19925;-62
2022/11/20 06:48:46;;;;;;;;;;;19.70;53.80;;;;;;5053006;28;19928;-62
2022/11/20 06:51:12;;;;;;;;;;;19.70;53.80;;;;;;5052617;28;19920;-62
2022/11/20 06:53:37;;;;;;;;;;;19.70;53.70;;;;;;5053300;28;19925;-62
2022/11/20 06:56:03;;;;;;;;;;;19.70;53.80;;;;;;5053815;28;19994;-62
2022/11/20 06:58:29;;;;;;;;;;;19.70;53.80;;;;;;5052508;28;19928;-62
2022/11/20 07:01:01;;;;;;;;;;;19.70;53.80;;;;;;5053427;28;19936;-62
2022/11/20 07:03:27;;;;;;;;;;;19.70;53.70;;;;;;5052766;28;19943;-62
2022/11/20 07:05:56;;;;;;;;;;;19.70;53.80;;;;;;5052631;28;20372;-62
2022/11/20 07:08:21;;;;;;;;;;;19.70;53.80;;;;;;5053558;28;19931;-62
2022/11/20 07:10:47;;;;;;;;;;;19.70;53.70;;;;;;5053246;28;19928;-62
2022/11/20 07:13:12;;;;;;;;;;;19.70;53.70;;;;;;5052597;28;19931;-62
2022/11/20 07:15:38;;;;;;;;;;;19.70;53.70;;;;;;5052852;28;19924;-62
2022/11/20 07:18:03;;;;;;;;;;;19.80;53.70;;;;;;5052653;28;19978;-62
2022/11/20 07:20:29;;;;;;;;;;;19.80;53.70;;;;;;5051860;28;19925;-62
2022/11/20 07:22:55;;;;;;;;;;;19.80;53.70;;;;;;5052842;28;20329;-62
2022/11/20 07:25:21;;;;;;;;;;;19.80;53.70;;;;;;5052880;28;19925;-61
2022/11/20 07:27:46;;;;;;;;;;;19.80;53.80;;;;;;5051957;28;19936;-61
2022/11/20 07:30:13;;;;;;;;;;;19.80;53.80;;;;;;5053045;28;19929;-62
2022/11/20 07:32:39;;;;;;;;;;;19.80;53.70;;;;;;5051701;28;19929;-62
2022/11/20 07:35:04;;;;;;;;;;;19.80;53.70;;;;;;5052699;28;19947;-62
2022/11/20 07:37:30;;;;;;;;;;;19.80;53.70;;;;;;5052727;28;20050;-62
2022/11/20 07:39:55;;;;;;;;;;;19.80;53.80;;;;;;5052020;28;20094;-63
2022/11/20 07:42:21;;;;;;;;;;;19.80;53.60;;;;;;5052627;28;19932;-63
2022/11/20 07:44:46;;;;;;;;;;;19.80;53.80;;;;;;5052124;28;19935;-62
2022/11/20 07:47:12;;;;;;;;;;;19.80;53.80;;;;;;5051731;28;20062;-62
2022/11/20 07:49:37;;;;;;;;;;;19.80;53.80;;;;;;5052146;28;19929;-62
2022/11/20 07:52:03;;;;;;;;;;;19.80;53.90;;;;;;5052716;28;19931;-62
2022/11/20 07:54:28;;;;;;;;;;;19.80;54.00;;;;;;5051364;28;19929;-62
2022/11/20 07:56:54;;;;;;;;;;;19.80;54.00;;;;;;5052607;28;19925;-62
2022/11/20 07:59:19;;;;;;;;;;;19.80;54.10;;;;;;5052595;28;19925;-62
2022/11/20 08:01:44;;;;;;;;;;;19.80;54.10;;;;;;5050679;28;19973;-61
2022/11/20 08:04:11;;;;;;;;;;;19.80;54.20;;;;;;5052439;28;20046;-60
2022/11/20 08:06:36;;;;;;;;;;;19.80;54.40;;;;;;5061660;28;19932;-60
2022/11/20 08:09:02;;;;;;;;;;;19.90;54.60;;;;;;5060824;28;19925;-60
2022/11/20 08:14:12;;;;;;;;;;;19.90;54.80;;;;;;5059841;28;19925;-59
2022/11/20 08:16:38;;;;;;;;;;;19.90;54.80;;;;;;5060316;28;19929;-60
2022/11/20 08:19:03;;;;;;;;;;;19.90;54.90;;;;;;5062378;28;19921;-59
2022/11/20 08:21:29;;;;;;;;;;;19.90;55.10;;;;;;5057148;28;19932;-60
2022/11/20 08:23:55;;;;;;;;;;;19.90;55.10;;;;;;5051398;28;19929;-60
2022/11/20 08:26:21;;;;;;;;;;;20.00;55.20;;;;;;5030725;28;19925;-59
2022/11/20 08:28:46;;;;;;;;;;;20.00;55.30;;;;;;5031163;28;19980;-62
2022/11/20 08:31:12;;;;;;;;;;;19.90;55.10;;;;;;5032449;28;20011;-62
2022/11/20 08:33:37;;;;;;;;;;;20.00;55.10;;;;;;5031659;28;20304;-60
2022/11/20 08:36:03;;;;;;;;;;;20.00;55.00;;;;;;5031589;28;19929;-60
2022/11/20 08:38:28;;;;;;;;;;;20.00;55.00;;;;;;5032108;28;19922;-59
2022/11/20 08:43:41;;;;;;;;;;;20.00;55.20;;;;;;5031197;28;20368;-59
2022/11/20 08:46:07;;;;;;;;;;;20.00;55.30;;;;;;5032268;28;19925;-60
2022/11/20 08:48:32;;;;;;;;;;;20.10;55.40;;;;;;5031753;28;19929;-60
2022/11/20 08:50:59;;;;;;;;;;;20.10;55.40;;;;;;5031267;28;19959;-59
2022/11/20 08:53:25;;;;;;;;;;;20.10;55.50;;;;;;5031312;28;19972;-59
2022/11/20 08:55:50;;;;;;;;;;;20.00;55.40;;;;;;5030880;28;19975;-60
2022/11/20 08:58:15;;;;;;;;;;;20.10;55.50;;;;;;5031469;28;19925;-60
2022/11/20 09:00:41;;;;;;;;;;;20.10;55.60;;;;;;5032438;28;20020;-60
2022/11/20 09:03:06;;;;;;;;;;;20.10;55.60;;;;;;5022861;28;19925;-61
2022/11/20 09:05:32;;;;;;;;;;;20.10;55.60;;;;;;5004039;28;19926;-60
2022/11/20 09:07:57;;;;;;;;;;;20.10;55.40;;;;;;5004152;28;19929;-61
2022/11/20 09:10:23;;;;;;;;;;;20.20;55.50;;;;;;5007561;28;19925;-60
2022/11/20 09:12:48;;;;;;;;;;;20.20;55.40;;;;;;5003756;28;19926;-60
2022/11/20 09:15:14;;;;;;;;;;;20.10;55.40;;;;;;5015251;28;19925;-60
2022/11/20 09:17:39;;;;;;;;;;;20.10;55.30;;;;;;5015134;28;19926;-60
2022/11/20 09:20:05;;;;;;;;;;;20.10;55.30;;;;;;5014774;28;19926;-60
2022/11/20 09:22:31;;;;;;;;;;;20.10;55.30;;;;;;5014990;28;19925;-60
2022/11/20 09:24:58;;;;;;;;;;;20.10;55.30;;;;;;5015326;28;19925;-60
2022/11/20 09:27:24;;;;;;;;;;;20.10;55.30;;;;;;5055239;28;19925;-61
2022/11/20 09:29:49;;;;;;;;;;;20.10;55.30;;;;;;5055168;28;19947;-60
2022/11/20 09:32:15;;;;;;;;;;;20.10;55.20;;;;;;5056249;28;19971;-60
2022/11/20 09:34:40;;;;;;;;;;;20.10;55.30;;;;;;5063820;28;20308;-60
2022/11/20 09:37:06;;;;;;;;;;;20.10;55.30;;;;;;5056025;28;20390;-61
2022/11/20 09:39:31;;;;;;;;;;;20.10;56.00;;;;;;5061200;28;20031;-60
2022/11/20 09:41:57;;;;;;;;;;;20.00;55.20;;;;;;5058879;28;19924;-60
2022/11/20 09:44:25;;;;;;;;;;;20.10;55.20;;;;;;5065374;28;19931;-61
2022/11/20 09:46:53;;;;;;;;;;;20.10;55.30;;;;;;5070634;28;19925;-60
2022/11/20 09:49:21;;;;;;;;;;;20.10;55.20;;;;;;5081991;28;20306;-60
2022/11/20 09:51:53;;;;;;;;;;;20.10;55.20;;;;;;5063621;28;19928;-60
2022/11/20 09:54:22;;;;;;;;;;;20.00;55.10;;;;;;5060968;28;19928;-60
2022/11/20 09:56:58;;;;;;;;;;;20.10;55.20;;;;;;5073175;28;19929;-60
2022/11/20 09:59:35;;;;;;;;;;;20.10;55.10;;;;;;5082058;28;19925;-61
2022/11/20 10:02:00;;;;;;;;;;;20.00;55.00;;;;;;5077271;28;19925;-60
2022/11/20 10:04:26;;;;;;;;;;;20.10;55.30;;;;;;5069578;28;19931;-60
2022/11/20 10:06:51;;;;;;;;;;;20.00;55.50;;;;;;5069595;28;19935;-60
2022/11/20 10:09:28;;;;;;;;;;;20.00;55.50;;;;;;5053866;28;19928;-60
2022/11/20 10:12:06;;;;;;;;;;;20.00;55.70;;;;;;5069131;28;19928;-60
2022/11/20 10:14:37;;;;;;;;;;;20.10;55.70;;;;;;5053135;28;19936;-61
2022/11/20 10:17:03;;;;;;;;;;;20.10;55.50;;;;;;5054253;28;19924;-60
2022/11/20 10:20:01;;;;;;;;;;;20.10;55.80;;;;;;5053773;28;19925;-60
2022/11/20 10:22:48;;;;;;;;;;;20.10;55.90;;;;;;5040821;28;19929;-60
2022/11/20 10:25:20;;;;;;;;;;;20.10;56.10;;;;;;5069634;28;19931;-60
2022/11/20 10:28:04;;;;;;;;;;;20.10;56.10;;;;;;5053912;28;20006;-60
2022/11/20 10:30:30;;;;;;;;;;;20.20;56.20;;;;;;5035265;28;19928;-60
2022/11/20 10:32:58;;;;;;;;;;;20.20;56.20;;;;;;5069364;28;19925;-63
2022/11/20 10:35:25;;;;;;;;;;;20.20;56.20;;;;;;5068732;28;20333;-60
2022/11/20 10:37:56;;;;;;;;;;;20.20;55.90;;;;;;5053384;28;20398;-60
2022/11/20 10:40:22;;;;;;;;;;;20.20;56.00;;;;;;5069655;28;19925;-61
2022/11/20 10:42:55;;;;;;;;;;;20.20;56.00;;;;;;5052687;28;19925;-61
2022/11/20 10:45:27;;;;;;;;;;;20.20;56.00;;;;;;5053912;28;19971;-62
2022/11/20 10:47:54;;;;;;;;;;;20.20;56.10;;;;;;5069206;28;19925;-61
2022/11/20 10:50:20;;;;;;;;;;;20.30;56.20;;;;;;5052996;28;19925;-61
2022/11/20 10:52:52;;;;;;;;;;;20.20;56.20;;;;;;5053523;28;20027;-61
2022/11/20 10:55:27;;;;;;;;;;;20.20;56.40;;;;;;5069260;28;20019;-62
2022/11/20 10:58:04;;;;;;;;;;;20.30;56.30;;;;;;5052863;28;19932;-61
2022/11/20 11:00:32;;;;;;;;;;;20.20;56.30;;;;;;5053233;28;19931;-61
2022/11/20 11:03:03;;;;;;;;;;;20.20;56.20;;;;;;5053281;28;19935;-60
2022/11/20 11:05:34;;;;;;;;;;;20.20;56.40;;;;;;5052524;28;19925;-61
2022/11/20 11:08:00;;;;;;;;;;;20.20;56.20;;;;;;5055931;28;20281;-60
2022/11/20 11:10:32;;;;;;;;;;;20.20;56.20;;;;;;5047078;28;20015;-60
2022/11/20 11:12:58;;;;;;;;;;;20.20;56.20;;;;;;5058227;28;19929;-59
2022/11/20 11:15:27;;;;;;;;;;;20.20;56.40;;;;;;5045889;28;19972;-60
2022/11/20 11:17:53;;;;;;;;;;;20.20;56.50;;;;;;5036962;28;19925;-60
2022/11/20 11:20:19;;;;;;;;;;;20.20;56.50;;;;;;5040033;28;20008;-60
2022/11/20 11:22:46;;;;;;;;;;;20.20;56.50;;;;;;5038034;28;19948;-60
2022/11/20 11:25:18;;;;;;;;;;;20.20;56.60;;;;;;5036264;28;20003;-60
2022/11/20 11:27:47;;;;;;;;;;;20.20;56.40;;;;;;5042951;28;19932;-60
2022/11/20 11:30:14;;;;;;;;;;;20.10;56.40;;;;;;5038212;28;19932;-60
2022/11/20 11:32:39;;;;;;;;;;;20.20;56.50;;;;;;5041103;28;20395;-60
2022/11/20 11:35:06;;;;;;;;;;;20.20;56.50;;;;;;5037105;28;19925;-60
2022/11/20 11:37:35;;;;;;;;;;;20.20;56.40;;;;;;5043601;28;19960;-60
2022/11/20 11:40:01;;;;;;;;;;;20.10;56.40;;;;;;5052096;28;19951;-62
2022/11/20 11:42:26;;;;;;;;;;;20.10;56.40;;;;;;5037518;28;19933;-61
2022/11/20 11:45:07;;;;;;;;;;;20.10;56.50;;;;;;5042069;28;19929;-61
2022/11/20 11:47:37;;;;;;;;;;;20.10;56.30;;;;;;5037355;28;19925;-61
2022/11/20 11:50:02;;;;;;;;;;;20.10;56.30;;;;;;5051609;28;19924;-60
2022/11/20 11:52:28;;;;;;;;;;;20.10;56.30;;;;;;5051939;28;19982;-59
2022/11/20 11:54:54;;;;;;;;;;;20.10;56.30;;;;;;5051372;28;19928;-60
2022/11/20 11:57:23;;;;;;;;;;;20.10;56.30;;;;;;5034922;28;20352;-60
2022/11/20 11:59:52;;;;;;;;;;;20.00;56.20;;;;;;5051346;28;19925;-59
2022/11/20 12:02:35;;;;;;;;;;;20.10;56.20;;;;;;5052493;28;19931;-59
2022/11/20 12:05:10;;;;;;;;;;;20.00;56.20;;;;;;5034842;28;19932;-59
2022/11/20 12:07:42;;;;;;;;;;;20.00;56.10;;;;;;5051445;28;19924;-59
2022/11/20 12:10:13;;;;;;;;;;;20.00;56.20;;;;;;5034774;28;19925;-62
2022/11/20 12:12:42;;;;;;;;;;;20.00;56.20;;;;;;5034093;28;19928;-59
2022/11/20 12:15:12;;;;;;;;;;;20.00;56.00;;;;;;5033503;28;19933;-59
2022/11/20 12:17:37;;;;;;;;;;;20.00;56.00;;;;;;5033793;28;19925;-59
2022/11/20 12:20:05;;;;;;;;;;;19.90;55.90;;;;;;5052199;28;20380;-60
2022/11/20 12:22:46;;;;;;;;;;;19.90;55.90;;;;;;5041052;28;20015;-61
2022/11/20 12:25:15;;;;;;;;;;;19.90;55.90;;;;;;5019960;28;19924;-60
2022/11/20 12:27:56;;;;;;;;;;;19.90;55.90;;;;;;5051438;28;19925;-60
2022/11/20 12:30:21;;;;;;;;;;;19.90;55.80;;;;;;5052044;28;19972;-61
2022/11/20 12:33:06;;;;;;;;;;;19.90;55.80;;;;;;5034251;28;20025;-61
2022/11/20 12:35:50;;;;;;;;;;;19.90;55.70;;;;;;5051754;28;19925;-61
2022/11/20 12:38:34;;;;;;;;;;;19.90;55.80;;;;;;5056343;28;19928;-60
2022/11/20 12:45:08;;;;;;;;;;;19.90;55.80;;;;;;5056337;28;19928;-61
2022/11/20 12:47:14;;;;;;;;;;;19.90;55.80;;;;;;5055948;28;19975;-61
2022/11/20 12:49:47;;;;;;;;;;;19.90;55.80;;;;;;5036964;28;19932;-61
2022/11/20 12:52:12;;;;;;;;;;;19.90;55.70;;;;;;5071493;28;19925;-61
2022/11/20 12:55:04;;;;;;;;;;;19.90;55.70;;;;;;5055737;28;20019;-61
2022/11/20 12:57:49;;;;;;;;;;;19.90;55.70;;;;;;5053191;28;19925;-61
2022/11/20 13:00:15;;;;;;;;;;;19.90;55.80;;;;;;5056093;28;19924;-62
2022/11/20 13:03:00;;;;;;;;;;;19.90;55.70;;;;;;5070797;28;20356;-62
2022/11/20 13:05:32;;;;;;;;;;;19.90;55.60;;;;;;5071260;28;19925;-62
2022/11/20 13:07:57;;;;;;;;;;;19.90;55.30;;;;;;5070862;28;19967;-61
2022/11/20 13:10:49;;;;;;;;;;;19.90;55.40;;;;;;5054906;28;20399;-60
2022/11/20 13:13:17;;;;;;;;;;;19.90;55.50;;;;;;5053398;28;19933;-61
2022/11/20 13:15:56;;;;;;;;;;;20.00;55.70;;;;;;5055296;28;19924;-60
2022/11/20 13:18:21;;;;;;;;;;;20.00;55.80;;;;;;5054451;28;19925;-62
2022/11/20 13:20:48;;;;;;;;;;;20.00;55.80;;;;;;5055324;28;19974;-61
2022/11/20 13:23:23;;;;;;;;;;;20.00;55.90;;;;;;5055503;28;19955;-61
2022/11/20 13:25:49;;;;;;;;;;;20.00;55.90;;;;;;5054072;28;19933;-61
2022/11/20 13:28:15;;;;;;;;;;;20.00;55.90;;;;;;5055344;28;19947;-61
2022/11/20 13:30:50;;;;;;;;;;;20.00;55.90;;;;;;5054721;28;19921;-61
2022/11/20 13:33:35;;;;;;;;;;;20.00;56.00;;;;;;5054217;28;19972;-61
2022/11/20 13:36:01;;;;;;;;;;;20.00;56.00;;;;;;5055260;28;19924;-61
2022/11/20 13:38:27;;;;;;;;;;;20.10;56.00;;;;;;5036359;28;19972;-61
2022/11/20 13:40:59;;;;;;;;;;;20.10;56.10;;;;;;5037403;28;20353;-60
2022/11/20 13:43:35;;;;;;;;;;;20.10;56.10;;;;;;5054943;28;19925;-60
2022/11/20 13:46:01;;;;;;;;;;;20.20;56.10;;;;;;5054245;28;19925;-60
2022/11/20 13:48:29;;;;;;;;;;;20.20;56.20;;;;;;5059223;28;20352;-60
2022/11/20 13:50:56;;;;;;;;;;;20.20;56.10;;;;;;5042172;28;19971;-60
2022/11/20 13:53:40;;;;;;;;;;;20.20;56.10;;;;;;5035977;28;19925;-60
2022/11/20 13:56:29;;;;;;;;;;;20.20;56.10;;;;;;5055009;28;19928;-60
2022/11/20 13:59:06;;;;;;;;;;;20.20;56.20;;;;;;5034385;28;19987;-62
2022/11/20 14:01:32;;;;;;;;;;;20.20;56.10;;;;;;5051067;28;19967;-62
2022/11/20 14:03:57;;;;;;;;;;;20.20;56.10;;;;;;5058058;28;19925;-63
2022/11/20 14:06:23;;;;;;;;;;;20.20;56.20;;;;;;5057036;28;20452;-61
2022/11/20 14:08:48;;;;;;;;;;;20.20;56.20;;;;;;5044178;28;19933;-61
2022/11/20 14:11:15;;;;;;;;;;;20.30;56.30;;;;;;5039240;28;20325;-61
2022/11/20 14:13:51;;;;;;;;;;;20.30;56.40;;;;;;5042206;28;19990;-61
2022/11/20 14:16:19;;;;;;;;;;;20.20;56.40;;;;;;5041991;28;20292;-61
2022/11/20 14:18:44;;;;;;;;;;;20.30;56.50;;;;;;5041338;28;19928;-62
2022/11/20 14:21:10;;;;;;;;;;;20.30;56.50;;;;;;5041686;28;19925;-61
2022/11/20 14:23:35;;;;;;;;;;;20.30;56.50;;;;;;5042248;28;19925;-62
2022/11/20 14:26:01;;;;;;;;;;;20.30;56.60;;;;;;5042863;28;19975;-61
2022/11/20 14:28:27;;;;;;;;;;;20.30;56.70;;;;;;5057021;28;19925;-62
2022/11/20 14:30:53;;;;;;;;;;;20.20;56.60;;;;;;5043023;28;19924;-60
2022/11/20 14:33:19;;;;;;;;;;;20.30;56.70;;;;;;5041931;28;19983;-62
2022/11/20 14:35:45;;;;;;;;;;;20.30;56.70;;;;;;5061928;28;20023;-61
2022/11/20 14:38:11;;;;;;;;;;;20.30;56.70;;;;;;5043524;28;20008;-62